sensor_id;sensor_type;location;lat;lon;timestamp;temperature;humidity
20162;DHT22;51382;53.180;15.414;2023-08-07T00:11:50;12.80;99.90
20162;DHT22;51382;53.180;15.414;2023-08-07T00:27:02;12.70;99.90
20162;DHT22;51382;53.180;15.414;2023-08-07T00:42:14;12.60;99.90
20162;DHT22;51382;53.180;15.414;2023-08-07T00:57:26;12.50;99.90
20162;DHT22;51382;53.180;15.414;2023-08-07T01:12:41;12.60;99.90
20162;DHT22;51382;53.180;15.414;2023-08-07T01:27:58;12.70;99.90
20162;DHT22;51382;53.180;15.414;2023-08-07T01:43:18;12.60;99.90
20162;DHT22;51382;53.180;15.414;2023-08-07T01:58:30;12.50;99.90
20162;DHT22;51382;53.180;15.414;2023-08-07T02:13:41;12.40;99.90
20162;DHT22;51382;53.180;15.414;2023-08-07T02:28:52;12.10;99.90
20162;DHT22;51382;53.180;15.414;2023-08-07T02:44:04;12.00;99.90
20162;DHT22;51382;53.180;15.414;2023-08-07T02:59:16;12.00;99.90
20162;DHT22;51382;53.180;15.414;2023-08-07T03:14:28;12.20;99.90
20162;DHT22;51382;53.180;15.414;2023-08-07T03:29:40;12.40;99.90
20162;DHT22;51382;53.180;15.414;2023-08-07T03:44:51;12.80;99.90
20162;DHT22;51382;53.180;15.414;2023-08-07T04:00:03;12.90;99.90
20162;DHT22;51382;53.180;15.414;2023-08-07T04:15:15;13.00;99.90
20162;DHT22;51382;53.180;15.414;2023-08-07T04:30:27;13.30;99.90
20162;DHT22;51382;53.180;15.414;2023-08-07T04:45:38;13.30;99.90
20162;DHT22;51382;53.180;15.414;2023-08-07T05:00:53;13.60;99.90
20162;DHT22;51382;53.180;15.414;2023-08-07T05:16:05;13.60;99.90
20162;DHT22;51382;53.180;15.414;2023-08-07T05:31:17;13.60;99.90
20162;DHT22;51382;53.180;15.414;2023-08-07T05:46:28;13.60;99.90
20162;DHT22;51382;53.180;15.414;2023-08-07T06:01:39;14.20;99.90
20162;DHT22;51382;53.180;15.414;2023-08-07T06:16:50;13.70;99.90
20162;DHT22;51382;53.180;15.414;2023-08-07T06:32:02;13.60;99.90
20162;DHT22;51382;53.180;15.414;2023-08-07T06:47:14;13.60;99.90
20162;DHT22;51382;53.180;15.414;2023-08-07T07:02:20;13.70;99.90
20162;DHT22;51382;53.180;15.414;2023-08-07T07:17:32;14.10;99.90
20162;DHT22;51382;53.180;15.414;2023-08-07T07:32:38;14.50;99.90
20162;DHT22;51382;53.180;15.414;2023-08-07T07:47:49;14.80;99.90
20162;DHT22;51382;53.180;15.414;2023-08-07T08:03:01;15.50;99.90
20162;DHT22;51382;53.180;15.414;2023-08-07T08:18:15;15.50;99.90
20162;DHT22;51382;53.180;15.414;2023-08-07T08:33:26;15.90;99.90
20162;DHT22;51382;53.180;15.414;2023-08-07T09:04:16;16.00;99.90
20162;DHT22;51382;53.180;15.414;2023-08-07T09:19:29;15.70;99.90
20162;DHT22;51382;53.180;15.414;2023-08-07T09:34:40;16.00;99.90
20162;DHT22;51382;53.180;15.414;2023-08-07T09:49:53;16.70;99.90
20162;DHT22;51382;53.180;15.414;2023-08-07T10:05:09;15.80;99.90
20162;DHT22;51382;53.180;15.414;2023-08-07T10:20:29;16.10;99.90
20162;DHT22;51382;53.180;15.414;2023-08-07T10:35:44;16.30;99.90
20162;DHT22;51382;53.180;15.414;2023-08-07T10:50:57;17.70;99.90
20162;DHT22;51382;53.180;15.414;2023-08-07T11:06:14;17.80;99.90
20162;DHT22;51382;53.180;15.414;2023-08-07T11:21:25;18.10;99.90
20162;DHT22;51382;53.180;15.414;2023-08-07T11:36:40;18.00;99.90
20162;DHT22;51382;53.180;15.414;2023-08-07T11:51:52;17.90;99.90
20162;DHT22;51382;53.180;15.414;2023-08-07T12:06:59;18.00;99.90
20162;DHT22;51382;53.180;15.414;2023-08-07T12:22:12;17.80;99.90
20162;DHT22;51382;53.180;15.414;2023-08-07T12:37:24;17.90;99.90
20162;DHT22;51382;53.180;15.414;2023-08-07T12:52:35;17.50;99.90
20162;DHT22;51382;53.180;15.414;2023-08-07T13:07:47;17.80;99.90
20162;DHT22;51382;53.180;15.414;2023-08-07T13:22:57;18.00;99.90
20162;DHT22;51382;53.180;15.414;2023-08-07T13:38:04;18.10;99.90
20162;DHT22;51382;53.180;15.414;2023-08-07T13:53:18;18.80;99.90
20162;DHT22;51382;53.180;15.414;2023-08-07T14:08:32;19.10;99.90
20162;DHT22;51382;53.180;15.414;2023-08-07T14:23:38;19.20;99.90
20162;DHT22;51382;53.180;15.414;2023-08-07T14:38:48;18.80;99.90
20162;DHT22;51382;53.180;15.414;2023-08-07T14:53:56;19.20;99.90
20162;DHT22;51382;53.180;15.414;2023-08-07T15:09:03;19.30;99.90
20162;DHT22;51382;53.180;15.414;2023-08-07T15:24:09;19.00;99.90
20162;DHT22;51382;53.180;15.414;2023-08-07T15:39:21;17.90;99.90
20162;DHT22;51382;53.180;15.414;2023-08-07T15:54:33;18.50;99.90
20162;DHT22;51382;53.180;15.414;2023-08-07T16:09:44;18.20;99.90
20162;DHT22;51382;53.180;15.414;2023-08-07T16:24:55;18.30;99.90
20162;DHT22;51382;53.180;15.414;2023-08-07T16:40:07;17.90;99.90
20162;DHT22;51382;53.180;15.414;2023-08-07T16:55:20;18.00;99.90
20162;DHT22;51382;53.180;15.414;2023-08-07T17:10:29;18.40;99.90
20162;DHT22;51382;53.180;15.414;2023-08-07T17:25:42;18.00;99.90
20162;DHT22;51382;53.180;15.414;2023-08-07T17:40:54;17.70;99.90
20162;DHT22;51382;53.180;15.414;2023-08-07T17:56:00;17.50;99.90
20162;DHT22;51382;53.180;15.414;2023-08-07T18:11:12;17.30;99.90
20162;DHT22;51382;53.180;15.414;2023-08-07T18:26:18;17.00;99.90
20162;DHT22;51382;53.180;15.414;2023-08-07T18:41:32;16.50;99.90
20162;DHT22;51382;53.180;15.414;2023-08-07T18:56:38;15.80;99.90
20162;DHT22;51382;53.180;15.414;2023-08-07T19:11:51;15.70;99.90
20162;DHT22;51382;53.180;15.414;2023-08-07T19:26:57;15.30;99.90
20162;DHT22;51382;53.180;15.414;2023-08-07T19:42:05;14.90;99.90
20162;DHT22;51382;53.180;15.414;2023-08-07T19:57:17;14.70;99.90
20162;DHT22;51382;53.180;15.414;2023-08-07T20:12:29;14.70;99.90
20162;DHT22;51382;53.180;15.414;2023-08-07T20:27:40;14.50;99.90
20162;DHT22;51382;53.180;15.414;2023-08-07T20:42:52;14.40;99.90
20162;DHT22;51382;53.180;15.414;2023-08-07T20:58:03;14.50;99.90
20162;DHT22;51382;53.180;15.414;2023-08-07T21:13:15;14.20;99.90
20162;DHT22;51382;53.180;15.414;2023-08-07T21:28:26;13.90;99.90
20162;DHT22;51382;53.180;15.414;2023-08-07T21:43:37;13.60;99.90
20162;DHT22;51382;53.180;15.414;2023-08-07T21:58:49;13.50;99.90
20162;DHT22;51382;53.180;15.414;2023-08-07T22:14:00;13.70;99.90
20162;DHT22;51382;53.180;15.414;2023-08-07T22:29:11;13.40;99.90
20162;DHT22;51382;53.180;15.414;2023-08-07T22:44:23;13.30;99.90
20162;DHT22;51382;53.180;15.414;2023-08-07T22:59:34;13.40;99.90
20162;DHT22;51382;53.180;15.414;2023-08-07T23:14:46;13.20;99.90
20162;DHT22;51382;53.180;15.414;2023-08-07T23:29:54;13.50;99.90
20162;DHT22;51382;53.180;15.414;2023-08-07T23:45:06;13.70;99.90
